Criccieth, United Kingdom
Current Conditions -  °F | °C
As of 3:50 AM on Thursday 29 Jan 2015 (Local Time) from EGOV Reporting Station
Broken Clouds Broken Clouds  
Wind Chill: 30°   Ceiling: 8000
Heat Index: 41°   Visibility: 6mi
Dew Point: 30°   Wind: 29mph
Humidity: 65%   Direction: 260°W
Pressure: 29.23"   Gusts: NA
Location:  52.92°N, 4.23°W
Report Text: EGOV 290350Z 26025KT 9999 SCT027 BKN080 05/M01 Q0990 BLU
Loading
Personal Weather Stations






























Interactive Weather Map New forecast layout! Learn more

10-Day Weather Forecast

Advertisements
Track Severe Weather on mobile